sensor_id;sensor_type;location;lat;lon;timestamp;P1;durP1;ratioP1;P2;durP2;ratioP2
6517;SDS011;3292;48.944;9.240;2023-03-13T00:02:26;7.57;;;3.70;;
6517;SDS011;3292;48.944;9.240;2023-03-13T00:04:53;14.70;;;4.20;;
6517;SDS011;3292;48.944;9.240;2023-03-13T00:07:20;9.63;;;4.07;;
6517;SDS011;3292;48.944;9.240;2023-03-13T00:09:48;8.73;;;3.50;;
6517;SDS011;3292;48.944;9.240;2023-03-13T00:12:15;12.33;;;4.63;;
6517;SDS011;3292;48.944;9.240;2023-03-13T00:14:42;12.43;;;4.57;;
6517;SDS011;3292;48.944;9.240;2023-03-13T00:17:08;8.43;;;3.43;;
6517;SDS011;3292;48.944;9.240;2023-03-13T00:19:35;10.20;;;4.00;;
6517;SDS011;3292;48.944;9.240;2023-03-13T00:22:02;7.67;;;4.00;;
6517;SDS011;3292;48.944;9.240;2023-03-13T00:24:30;9.77;;;4.30;;
6517;SDS011;3292;48.944;9.240;2023-03-13T00:26:59;8.53;;;3.90;;
6517;SDS011;3292;48.944;9.240;2023-03-13T00:29:29;7.97;;;3.90;;
6517;SDS011;3292;48.944;9.240;2023-03-13T00:32:04;10.40;;;4.37;;
6517;SDS011;3292;48.944;9.240;2023-03-13T00:34:37;9.97;;;4.53;;
6517;SDS011;3292;48.944;9.240;2023-03-13T00:37:16;12.73;;;4.73;;
6517;SDS011;3292;48.944;9.240;2023-03-13T00:39:45;14.33;;;4.77;;
6517;SDS011;3292;48.944;9.240;2023-03-13T00:42:13;8.47;;;4.23;;
6517;SDS011;3292;48.944;9.240;2023-03-13T00:44:40;8.13;;;4.13;;
6517;SDS011;3292;48.944;9.240;2023-03-13T00:47:07;10.87;;;4.47;;
6517;SDS011;3292;48.944;9.240;2023-03-13T00:49:34;8.50;;;4.27;;
6517;SDS011;3292;48.944;9.240;2023-03-13T00:52:01;11.23;;;4.50;;
6517;SDS011;3292;48.944;9.240;2023-03-13T00:54:28;11.73;;;4.77;;
6517;SDS011;3292;48.944;9.240;2023-03-13T00:56:55;8.03;;;4.70;;
6517;SDS011;3292;48.944;9.240;2023-03-13T00:59:30;9.70;;;4.20;;
6517;SDS011;3292;48.944;9.240;2023-03-13T01:01:57;9.70;;;4.10;;
6517;SDS011;3292;48.944;9.240;2023-03-13T01:04:24;12.77;;;4.30;;
6517;SDS011;3292;48.944;9.240;2023-03-13T01:06:51;7.60;;;3.93;;
6517;SDS011;3292;48.944;9.240;2023-03-13T01:09:18;13.87;;;5.20;;
6517;SDS011;3292;48.944;9.240;2023-03-13T01:11:45;10.77;;;4.10;;
6517;SDS011;3292;48.944;9.240;2023-03-13T01:14:12;12.33;;;4.30;;
6517;SDS011;3292;48.944;9.240;2023-03-13T01:16:43;11.70;;;4.23;;
6517;SDS011;3292;48.944;9.240;2023-03-13T01:19:10;8.27;;;4.20;;
6517;SDS011;3292;48.944;9.240;2023-03-13T01:21:38;8.63;;;4.00;;
6517;SDS011;3292;48.944;9.240;2023-03-13T01:24:06;11.67;;;4.20;;
6517;SDS011;3292;48.944;9.240;2023-03-13T01:26:33;11.47;;;4.23;;
6517;SDS011;3292;48.944;9.240;2023-03-13T01:29:00;8.80;;;4.20;;
6517;SDS011;3292;48.944;9.240;2023-03-13T01:31:45;7.93;;;4.23;;
6517;SDS011;3292;48.944;9.240;2023-03-13T01:34:34;10.27;;;4.33;;
6517;SDS011;3292;48.944;9.240;2023-03-13T01:37:13;11.07;;;5.27;;
6517;SDS011;3292;48.944;9.240;2023-03-13T01:39:41;10.67;;;4.43;;
6517;SDS011;3292;48.944;9.240;2023-03-13T01:42:11;10.60;;;4.47;;
6517;SDS011;3292;48.944;9.240;2023-03-13T01:44:50;9.43;;;3.90;;
6517;SDS011;3292;48.944;9.240;2023-03-13T01:47:24;12.50;;;4.07;;
6517;SDS011;3292;48.944;9.240;2023-03-13T01:49:55;7.97;;;3.57;;
6517;SDS011;3292;48.944;9.240;2023-03-13T01:52:37;7.60;;;3.40;;
6517;SDS011;3292;48.944;9.240;2023-03-13T01:55:08;8.83;;;4.10;;
6517;SDS011;3292;48.944;9.240;2023-03-13T01:57:49;9.37;;;3.83;;
6517;SDS011;3292;48.944;9.240;2023-03-13T02:00:25;7.77;;;4.10;;
6517;SDS011;3292;48.944;9.240;2023-03-13T02:03:02;11.03;;;4.20;;
6517;SDS011;3292;48.944;9.240;2023-03-13T02:05:35;11.60;;;3.97;;
6517;SDS011;3292;48.944;9.240;2023-03-13T02:08:04;10.10;;;3.73;;
6517;SDS011;3292;48.944;9.240;2023-03-13T02:10:34;7.07;;;3.67;;
6517;SDS011;3292;48.944;9.240;2023-03-13T02:13:04;11.07;;;3.53;;
6517;SDS011;3292;48.944;9.240;2023-03-13T02:15:35;13.73;;;4.27;;
6517;SDS011;3292;48.944;9.240;2023-03-13T02:18:23;10.83;;;4.23;;
6517;SDS011;3292;48.944;9.240;2023-03-13T02:20:51;8.70;;;3.57;;
6517;SDS011;3292;48.944;9.240;2023-03-13T02:23:39;9.37;;;3.40;;
6517;SDS011;3292;48.944;9.240;2023-03-13T02:26:15;12.87;;;4.27;;
6517;SDS011;3292;48.944;9.240;2023-03-13T02:28:43;6.97;;;3.57;;
6517;SDS011;3292;48.944;9.240;2023-03-13T02:31:22;6.80;;;3.43;;
6517;SDS011;3292;48.944;9.240;2023-03-13T02:33:52;8.77;;;4.10;;
6517;SDS011;3292;48.944;9.240;2023-03-13T02:36:21;10.63;;;4.20;;
6517;SDS011;3292;48.944;9.240;2023-03-13T02:38:52;10.13;;;4.20;;
6517;SDS011;3292;48.944;9.240;2023-03-13T02:41:26;10.23;;;4.13;;
6517;SDS011;3292;48.944;9.240;2023-03-13T02:43:57;9.93;;;4.10;;
6517;SDS011;3292;48.944;9.240;2023-03-13T02:46:27;5.50;;;3.43;;
6517;SDS011;3292;48.944;9.240;2023-03-13T02:49:15;8.63;;;3.90;;
6517;SDS011;3292;48.944;9.240;2023-03-13T02:51:54;8.37;;;3.60;;
6517;SDS011;3292;48.944;9.240;2023-03-13T02:54:23;8.77;;;3.93;;
6517;SDS011;3292;48.944;9.240;2023-03-13T02:57:03;6.33;;;3.40;;
6517;SDS011;3292;48.944;9.240;2023-03-13T02:59:31;9.50;;;3.73;;
6517;SDS011;3292;48.944;9.240;2023-03-13T03:02:00;7.60;;;3.43;;
6517;SDS011;3292;48.944;9.240;2023-03-13T03:04:27;11.57;;;3.80;;
6517;SDS011;3292;48.944;9.240;2023-03-13T03:07:02;9.20;;;3.60;;
6517;SDS011;3292;48.944;9.240;2023-03-13T03:09:30;7.53;;;3.40;;
6517;SDS011;3292;48.944;9.240;2023-03-13T03:12:10;9.70;;;3.53;;
6517;SDS011;3292;48.944;9.240;2023-03-13T03:14:36;7.40;;;3.27;;
6517;SDS011;3292;48.944;9.240;2023-03-13T03:17:04;10.90;;;4.07;;
6517;SDS011;3292;48.944;9.240;2023-03-13T03:19:32;8.20;;;2.80;;
6517;SDS011;3292;48.944;9.240;2023-03-13T03:21:59;8.47;;;3.60;;
6517;SDS011;3292;48.944;9.240;2023-03-13T03:24:26;8.70;;;3.27;;
6517;SDS011;3292;48.944;9.240;2023-03-13T03:26:58;9.10;;;3.47;;
6517;SDS011;3292;48.944;9.240;2023-03-13T03:29:27;7.90;;;3.47;;
6517;SDS011;3292;48.944;9.240;2023-03-13T03:32:06;8.37;;;2.90;;
6517;SDS011;3292;48.944;9.240;2023-03-13T03:34:33;9.33;;;3.93;;
6517;SDS011;3292;48.944;9.240;2023-03-13T03:37:00;6.60;;;2.97;;
6517;SDS011;3292;48.944;9.240;2023-03-13T03:39:27;6.83;;;3.03;;
6517;SDS011;3292;48.944;9.240;2023-03-13T03:41:54;9.37;;;3.20;;
6517;SDS011;3292;48.944;9.240;2023-03-13T03:44:21;8.07;;;3.33;;
6517;SDS011;3292;48.944;9.240;2023-03-13T03:46:49;5.10;;;3.00;;
6517;SDS011;3292;48.944;9.240;2023-03-13T03:49:16;8.30;;;2.83;;
6517;SDS011;3292;48.944;9.240;2023-03-13T03:51:42;6.67;;;3.10;;
6517;SDS011;3292;48.944;9.240;2023-03-13T03:54:09;8.30;;;2.90;;
6517;SDS011;3292;48.944;9.240;2023-03-13T03:56:36;5.50;;;3.20;;
6517;SDS011;3292;48.944;9.240;2023-03-13T03:59:03;5.13;;;2.90;;
6517;SDS011;3292;48.944;9.240;2023-03-13T04:01:29;5.87;;;2.97;;
6517;SDS011;3292;48.944;9.240;2023-03-13T04:03:58;7.07;;;3.30;;
6517;SDS011;3292;48.944;9.240;2023-03-13T04:06:25;5.83;;;2.73;;
6517;SDS011;3292;48.944;9.240;2023-03-13T04:08:52;4.23;;;2.73;;
6517;SDS011;3292;48.944;9.240;2023-03-13T04:11:19;4.80;;;2.97;;
6517;SDS011;3292;48.944;9.240;2023-03-13T04:13:46;6.60;;;3.03;;
6517;SDS011;3292;48.944;9.240;2023-03-13T04:16:13;4.47;;;2.80;;
6517;SDS011;3292;48.944;9.240;2023-03-13T04:18:40;5.70;;;2.70;;
6517;SDS011;3292;48.944;9.240;2023-03-13T04:21:08;7.67;;;3.00;;
6517;SDS011;3292;48.944;9.240;2023-03-13T04:23:35;9.47;;;3.17;;
6517;SDS011;3292;48.944;9.240;2023-03-13T04:26:01;6.67;;;2.90;;
6517;SDS011;3292;48.944;9.240;2023-03-13T04:28:28;6.47;;;3.53;;
6517;SDS011;3292;48.944;9.240;2023-03-13T04:30:55;16.67;;;13.97;;
6517;SDS011;3292;48.944;9.240;2023-03-13T04:33:22;14.30;;;8.47;;
6517;SDS011;3292;48.944;9.240;2023-03-13T04:35:49;14.07;;;7.17;;
6517;SDS011;3292;48.944;9.240;2023-03-13T04:38:17;11.77;;;3.80;;
6517;SDS011;3292;48.944;9.240;2023-03-13T04:40:44;9.00;;;3.50;;
6517;SDS011;3292;48.944;9.240;2023-03-13T04:43:11;14.33;;;3.30;;
6517;SDS011;3292;48.944;9.240;2023-03-13T04:45:38;9.17;;;3.13;;
6517;SDS011;3292;48.944;9.240;2023-03-13T04:48:05;6.33;;;2.70;;
6517;SDS011;3292;48.944;9.240;2023-03-13T04:50:32;5.53;;;2.33;;
6517;SDS011;3292;48.944;9.240;2023-03-13T04:52:59;5.00;;;2.77;;
6517;SDS011;3292;48.944;9.240;2023-03-13T04:55:27;4.50;;;2.10;;
6517;SDS011;3292;48.944;9.240;2023-03-13T04:57:53;3.47;;;2.10;;
6517;SDS011;3292;48.944;9.240;2023-03-13T05:00:20;6.03;;;1.77;;
6517;SDS011;3292;48.944;9.240;2023-03-13T05:02:47;2.20;;;1.67;;
6517;SDS011;3292;48.944;9.240;2023-03-13T05:05:17;3.07;;;1.70;;
6517;SDS011;3292;48.944;9.240;2023-03-13T05:07:44;2.10;;;1.90;;
6517;SDS011;3292;48.944;9.240;2023-03-13T05:10:10;2.93;;;1.60;;
6517;SDS011;3292;48.944;9.240;2023-03-13T05:12:38;1.67;;;1.57;;
6517;SDS011;3292;48.944;9.240;2023-03-13T05:15:06;2.60;;;1.30;;
6517;SDS011;3292;48.944;9.240;2023-03-13T05:17:33;3.37;;;1.37;;
6517;SDS011;3292;48.944;9.240;2023-03-13T05:20:00;1.47;;;1.37;;
6517;SDS011;3292;48.944;9.240;2023-03-13T05:22:28;1.27;;;1.20;;
6517;SDS011;3292;48.944;9.240;2023-03-13T05:24:55;1.70;;;1.30;;
6517;SDS011;3292;48.944;9.240;2023-03-13T05:27:21;1.87;;;1.60;;
6517;SDS011;3292;48.944;9.240;2023-03-13T05:29:50;1.57;;;1.47;;
6517;SDS011;3292;48.944;9.240;2023-03-13T05:32:16;3.93;;;1.50;;
6517;SDS011;3292;48.944;9.240;2023-03-13T05:34:43;1.60;;;1.43;;
6517;SDS011;3292;48.944;9.240;2023-03-13T05:37:10;3.10;;;1.93;;
6517;SDS011;3292;48.944;9.240;2023-03-13T05:39:37;1.53;;;1.30;;
6517;SDS011;3292;48.944;9.240;2023-03-13T05:42:04;1.60;;;1.50;;
6517;SDS011;3292;48.944;9.240;2023-03-13T05:44:31;1.60;;;1.50;;
6517;SDS011;3292;48.944;9.240;2023-03-13T05:46:59;1.60;;;1.50;;
6517;SDS011;3292;48.944;9.240;2023-03-13T05:49:26;2.33;;;1.60;;
6517;SDS011;3292;48.944;9.240;2023-03-13T05:51:52;2.03;;;1.40;;
6517;SDS011;3292;48.944;9.240;2023-03-13T05:54:19;2.87;;;1.73;;
6517;SDS011;3292;48.944;9.240;2023-03-13T05:56:46;2.00;;;1.50;;
6517;SDS011;3292;48.944;9.240;2023-03-13T05:59:14;1.60;;;1.50;;
6517;SDS011;3292;48.944;9.240;2023-03-13T06:01:41;2.97;;;1.30;;
6517;SDS011;3292;48.944;9.240;2023-03-13T06:04:09;1.50;;;1.40;;
6517;SDS011;3292;48.944;9.240;2023-03-13T06:06:36;2.33;;;1.53;;
6517;SDS011;3292;48.944;9.240;2023-03-13T06:09:03;2.20;;;1.50;;
6517;SDS011;3292;48.944;9.240;2023-03-13T06:11:30;1.63;;;1.47;;
6517;SDS011;3292;48.944;9.240;2023-03-13T06:13:56;1.60;;;1.33;;
6517;SDS011;3292;48.944;9.240;2023-03-13T06:16:23;1.37;;;1.27;;
6517;SDS011;3292;48.944;9.240;2023-03-13T06:18:50;1.70;;;1.60;;
6517;SDS011;3292;48.944;9.240;2023-03-13T06:21:18;1.50;;;1.40;;
6517;SDS011;3292;48.944;9.240;2023-03-13T06:23:45;1.87;;;1.40;;
6517;SDS011;3292;48.944;9.240;2023-03-13T06:26:12;1.40;;;1.30;;
6517;SDS011;3292;48.944;9.240;2023-03-13T06:28:39;2.37;;;1.93;;
6517;SDS011;3292;48.944;9.240;2023-03-13T06:31:06;2.70;;;1.60;;
6517;SDS011;3292;48.944;9.240;2023-03-13T06:33:33;1.50;;;1.40;;
6517;SDS011;3292;48.944;9.240;2023-03-13T06:36:01;1.80;;;1.70;;
6517;SDS011;3292;48.944;9.240;2023-03-13T06:38:30;2.77;;;1.80;;
6517;SDS011;3292;48.944;9.240;2023-03-13T06:40:57;1.63;;;1.53;;
6517;SDS011;3292;48.944;9.240;2023-03-13T06:43:24;2.20;;;1.63;;
6517;SDS011;3292;48.944;9.240;2023-03-13T06:45:51;3.47;;;1.67;;
6517;SDS011;3292;48.944;9.240;2023-03-13T06:48:18;1.30;;;1.20;;
6517;SDS011;3292;48.944;9.240;2023-03-13T06:50:47;2.23;;;1.73;;
6517;SDS011;3292;48.944;9.240;2023-03-13T06:53:14;1.50;;;1.40;;
6517;SDS011;3292;48.944;9.240;2023-03-13T06:55:44;2.27;;;1.40;;
6517;SDS011;3292;48.944;9.240;2023-03-13T06:58:13;1.30;;;1.20;;
6517;SDS011;3292;48.944;9.240;2023-03-13T07:00:39;1.40;;;1.30;;
6517;SDS011;3292;48.944;9.240;2023-03-13T07:03:08;1.40;;;1.30;;
6517;SDS011;3292;48.944;9.240;2023-03-13T07:05:35;1.47;;;1.30;;
6517;SDS011;3292;48.944;9.240;2023-03-13T07:08:02;1.80;;;1.17;;
6517;SDS011;3292;48.944;9.240;2023-03-13T07:10:29;1.30;;;1.30;;
6517;SDS011;3292;48.944;9.240;2023-03-13T07:12:57;1.40;;;1.30;;
6517;SDS011;3292;48.944;9.240;2023-03-13T07:15:24;1.53;;;1.00;;
6517;SDS011;3292;48.944;9.240;2023-03-13T07:17:55;1.30;;;1.20;;
6517;SDS011;3292;48.944;9.240;2023-03-13T07:20:28;1.40;;;1.30;;
6517;SDS011;3292;48.944;9.240;2023-03-13T07:22:58;1.83;;;1.30;;
6517;SDS011;3292;48.944;9.240;2023-03-13T07:25:31;1.77;;;1.23;;
6517;SDS011;3292;48.944;9.240;2023-03-13T07:28:08;1.60;;;1.50;;
6517;SDS011;3292;48.944;9.240;2023-03-13T07:30:42;1.53;;;1.43;;
6517;SDS011;3292;48.944;9.240;2023-03-13T07:33:17;1.60;;;1.27;;
6517;SDS011;3292;48.944;9.240;2023-03-13T07:36:03;1.10;;;1.10;;
6517;SDS011;3292;48.944;9.240;2023-03-13T07:38:36;2.20;;;1.37;;
6517;SDS011;3292;48.944;9.240;2023-03-13T07:41:28;1.70;;;1.60;;
6517;SDS011;3292;48.944;9.240;2023-03-13T07:44:01;1.57;;;1.43;;
6517;SDS011;3292;48.944;9.240;2023-03-13T07:46:58;1.27;;;1.17;;
6517;SDS011;3292;48.944;9.240;2023-03-13T07:49:37;2.00;;;1.50;;
6517;SDS011;3292;48.944;9.240;2023-03-13T07:52:12;1.80;;;1.70;;
6517;SDS011;3292;48.944;9.240;2023-03-13T07:54:48;1.50;;;1.40;;
6517;SDS011;3292;48.944;9.240;2023-03-13T07:57:30;2.63;;;1.40;;
6517;SDS011;3292;48.944;9.240;2023-03-13T08:00:17;1.20;;;1.20;;
6517;SDS011;3292;48.944;9.240;2023-03-13T08:02:58;1.50;;;1.40;;
6517;SDS011;3292;48.944;9.240;2023-03-13T08:05:31;1.60;;;1.30;;
6517;SDS011;3292;48.944;9.240;2023-03-13T08:08:11;2.37;;;1.40;;
6517;SDS011;3292;48.944;9.240;2023-03-13T08:10:49;1.33;;;1.20;;
6517;SDS011;3292;48.944;9.240;2023-03-13T08:13:24;1.30;;;1.20;;
6517;SDS011;3292;48.944;9.240;2023-03-13T08:16:01;1.30;;;1.20;;
6517;SDS011;3292;48.944;9.240;2023-03-13T08:18:41;1.47;;;1.37;;
6517;SDS011;3292;48.944;9.240;2023-03-13T08:21:25;1.40;;;1.30;;
6517;SDS011;3292;48.944;9.240;2023-03-13T08:24:03;1.40;;;1.30;;
6517;SDS011;3292;48.944;9.240;2023-03-13T08:26:37;1.63;;;1.40;;
6517;SDS011;3292;48.944;9.240;2023-03-13T08:29:17;2.63;;;1.40;;
6517;SDS011;3292;48.944;9.240;2023-03-13T08:31:49;1.47;;;1.37;;
6517;SDS011;3292;48.944;9.240;2023-03-13T08:34:23;2.00;;;1.40;;
6517;SDS011;3292;48.944;9.240;2023-03-13T08:36:53;1.43;;;1.30;;
6517;SDS011;3292;48.944;9.240;2023-03-13T08:39:21;1.40;;;1.30;;
6517;SDS011;3292;48.944;9.240;2023-03-13T08:41:52;2.37;;;1.27;;
6517;SDS011;3292;48.944;9.240;2023-03-13T08:44:22;1.50;;;1.40;;
6517;SDS011;3292;48.944;9.240;2023-03-13T08:46:51;2.53;;;1.50;;
6517;SDS011;3292;48.944;9.240;2023-03-13T08:49:28;1.60;;;1.50;;
6517;SDS011;3292;48.944;9.240;2023-03-13T08:51:56;2.43;;;1.30;;
6517;SDS011;3292;48.944;9.240;2023-03-13T08:54:28;1.73;;;1.30;;
6517;SDS011;3292;48.944;9.240;2023-03-13T08:56:59;2.10;;;1.47;;
6517;SDS011;3292;48.944;9.240;2023-03-13T08:59:28;1.43;;;1.33;;
6517;SDS011;3292;48.944;9.240;2023-03-13T09:01:57;1.47;;;1.37;;
6517;SDS011;3292;48.944;9.240;2023-03-13T09:04:45;1.63;;;1.50;;
6517;SDS011;3292;48.944;9.240;2023-03-13T09:07:30;1.73;;;1.30;;
6517;SDS011;3292;48.944;9.240;2023-03-13T09:10:03;1.43;;;1.30;;
6517;SDS011;3292;48.944;9.240;2023-03-13T09:12:44;1.67;;;1.57;;
6517;SDS011;3292;48.944;9.240;2023-03-13T09:15:18;2.47;;;1.40;;
6517;SDS011;3292;48.944;9.240;2023-03-13T09:17:50;1.60;;;1.50;;
6517;SDS011;3292;48.944;9.240;2023-03-13T09:20:17;1.30;;;1.20;;
6517;SDS011;3292;48.944;9.240;2023-03-13T09:22:44;1.53;;;1.43;;
6517;SDS011;3292;48.944;9.240;2023-03-13T09:25:22;1.70;;;1.60;;
6517;SDS011;3292;48.944;9.240;2023-03-13T09:27:53;2.00;;;1.57;;
6517;SDS011;3292;48.944;9.240;2023-03-13T09:30:21;2.20;;;1.60;;
6517;SDS011;3292;48.944;9.240;2023-03-13T09:32:49;1.47;;;1.33;;
6517;SDS011;3292;48.944;9.240;2023-03-13T09:35:17;1.70;;;1.43;;
6517;SDS011;3292;48.944;9.240;2023-03-13T09:37:44;3.07;;;1.60;;
6517;SDS011;3292;48.944;9.240;2023-03-13T09:40:15;2.50;;;1.50;;
6517;SDS011;3292;48.944;9.240;2023-03-13T09:42:51;1.73;;;1.53;;
6517;SDS011;3292;48.944;9.240;2023-03-13T09:45:26;2.50;;;1.60;;
6517;SDS011;3292;48.944;9.240;2023-03-13T09:48:01;3.63;;;1.70;;
6517;SDS011;3292;48.944;9.240;2023-03-13T09:50:33;1.70;;;1.60;;
6517;SDS011;3292;48.944;9.240;2023-03-13T09:53:02;1.67;;;1.57;;
6517;SDS011;3292;48.944;9.240;2023-03-13T09:55:36;3.00;;;1.73;;
6517;SDS011;3292;48.944;9.240;2023-03-13T09:58:07;2.30;;;1.63;;
6517;SDS011;3292;48.944;9.240;2023-03-13T10:00:50;2.83;;;2.00;;
6517;SDS011;3292;48.944;9.240;2023-03-13T10:03:26;3.10;;;2.00;;
6517;SDS011;3292;48.944;9.240;2023-03-13T10:05:59;2.33;;;1.73;;
6517;SDS011;3292;48.944;9.240;2023-03-13T10:08:47;2.63;;;1.80;;
6517;SDS011;3292;48.944;9.240;2023-03-13T10:11:26;3.37;;;1.83;;
6517;SDS011;3292;48.944;9.240;2023-03-13T10:14:09;2.67;;;1.90;;
6517;SDS011;3292;48.944;9.240;2023-03-13T10:16:46;2.43;;;1.77;;
6517;SDS011;3292;48.944;9.240;2023-03-13T10:19:35;2.10;;;1.80;;
6517;SDS011;3292;48.944;9.240;2023-03-13T10:22:14;4.63;;;2.00;;
6517;SDS011;3292;48.944;9.240;2023-03-13T10:24:50;2.70;;;1.80;;
6517;SDS011;3292;48.944;9.240;2023-03-13T10:27:29;2.87;;;1.83;;
6517;SDS011;3292;48.944;9.240;2023-03-13T10:30:09;3.67;;;1.90;;
6517;SDS011;3292;48.944;9.240;2023-03-13T10:33:19;1.50;;;1.40;;
6517;SDS011;3292;48.944;9.240;2023-03-13T10:36:01;4.40;;;1.67;;
6517;SDS011;3292;48.944;9.240;2023-03-13T10:38:34;1.90;;;1.67;;
6517;SDS011;3292;48.944;9.240;2023-03-13T10:41:24;3.10;;;1.60;;
6517;SDS011;3292;48.944;9.240;2023-03-13T10:44:02;3.33;;;1.80;;
6517;SDS011;3292;48.944;9.240;2023-03-13T10:46:58;1.80;;;1.70;;
6517;SDS011;3292;48.944;9.240;2023-03-13T10:49:26;2.20;;;1.70;;
6517;SDS011;3292;48.944;9.240;2023-03-13T10:51:55;2.23;;;1.70;;
6517;SDS011;3292;48.944;9.240;2023-03-13T10:54:25;2.97;;;1.70;;
6517;SDS011;3292;48.944;9.240;2023-03-13T10:57:06;3.13;;;1.80;;
6517;SDS011;3292;48.944;9.240;2023-03-13T10:59:38;3.17;;;1.80;;
6517;SDS011;3292;48.944;9.240;2023-03-13T11:02:19;2.37;;;1.70;;
6517;SDS011;3292;48.944;9.240;2023-03-13T11:04:48;1.73;;;1.63;;
6517;SDS011;3292;48.944;9.240;2023-03-13T11:07:19;3.37;;;1.77;;
6517;SDS011;3292;48.944;9.240;2023-03-13T11:09:56;3.17;;;1.70;;
6517;SDS011;3292;48.944;9.240;2023-03-13T11:12:24;1.67;;;1.53;;
6517;SDS011;3292;48.944;9.240;2023-03-13T11:14:55;3.20;;;1.60;;
6517;SDS011;3292;48.944;9.240;2023-03-13T11:17:27;1.80;;;1.50;;
6517;SDS011;3292;48.944;9.240;2023-03-13T11:20:02;3.97;;;2.20;;
6517;SDS011;3292;48.944;9.240;2023-03-13T11:22:37;2.80;;;1.90;;
6517;SDS011;3292;48.944;9.240;2023-03-13T11:25:16;1.77;;;1.67;;
6517;SDS011;3292;48.944;9.240;2023-03-13T11:27:47;6.23;;;2.10;;
6517;SDS011;3292;48.944;9.240;2023-03-13T11:30:40;2.73;;;1.70;;
6517;SDS011;3292;48.944;9.240;2023-03-13T11:33:20;3.77;;;1.80;;
6517;SDS011;3292;48.944;9.240;2023-03-13T11:35:54;2.80;;;1.83;;
6517;SDS011;3292;48.944;9.240;2023-03-13T11:38:28;3.17;;;1.90;;
6517;SDS011;3292;48.944;9.240;2023-03-13T11:41:02;3.50;;;2.20;;
6517;SDS011;3292;48.944;9.240;2023-03-13T11:43:45;2.97;;;2.03;;
6517;SDS011;3292;48.944;9.240;2023-03-13T11:46:34;3.60;;;2.00;;
6517;SDS011;3292;48.944;9.240;2023-03-13T11:49:25;2.03;;;1.60;;
6517;SDS011;3292;48.944;9.240;2023-03-13T11:52:03;2.63;;;1.93;;
6517;SDS011;3292;48.944;9.240;2023-03-13T11:54:40;3.30;;;1.97;;
6517;SDS011;3292;48.944;9.240;2023-03-13T11:57:28;2.67;;;1.80;;
6517;SDS011;3292;48.944;9.240;2023-03-13T12:00:13;1.93;;;1.63;;
6517;SDS011;3292;48.944;9.240;2023-03-13T12:02:46;3.17;;;2.00;;
6517;SDS011;3292;48.944;9.240;2023-03-13T12:05:17;1.77;;;1.67;;
6517;SDS011;3292;48.944;9.240;2023-03-13T12:07:47;2.53;;;1.83;;
6517;SDS011;3292;48.944;9.240;2023-03-13T12:10:18;2.03;;;1.87;;
6517;SDS011;3292;48.944;9.240;2023-03-13T12:12:53;4.40;;;1.60;;
6517;SDS011;3292;48.944;9.240;2023-03-13T12:15:27;1.93;;;1.60;;
6517;SDS011;3292;48.944;9.240;2023-03-13T12:17:58;2.53;;;1.70;;
6517;SDS011;3292;48.944;9.240;2023-03-13T12:20:32;3.37;;;1.60;;
6517;SDS011;3292;48.944;9.240;2023-03-13T12:23:11;2.47;;;1.70;;
6517;SDS011;3292;48.944;9.240;2023-03-13T12:25:44;2.67;;;1.90;;
6517;SDS011;3292;48.944;9.240;2023-03-13T12:31:06;4.03;;;1.80;;
6517;SDS011;3292;48.944;9.240;2023-03-13T12:33:41;3.17;;;1.50;;
6517;SDS011;3292;48.944;9.240;2023-03-13T12:36:13;2.90;;;1.60;;
6517;SDS011;3292;48.944;9.240;2023-03-13T12:38:47;1.57;;;1.40;;
6517;SDS011;3292;48.944;9.240;2023-03-13T12:41:22;2.47;;;1.60;;
6517;SDS011;3292;48.944;9.240;2023-03-13T12:43:51;2.30;;;1.63;;
6517;SDS011;3292;48.944;9.240;2023-03-13T12:46:30;2.53;;;1.53;;
6517;SDS011;3292;48.944;9.240;2023-03-13T12:49:08;1.93;;;1.53;;
6517;SDS011;3292;48.944;9.240;2023-03-13T12:52:01;1.63;;;1.40;;
6517;SDS011;3292;48.944;9.240;2023-03-13T12:54:42;2.13;;;1.67;;
6517;SDS011;3292;48.944;9.240;2023-03-13T12:57:21;1.87;;;1.67;;
6517;SDS011;3292;48.944;9.240;2023-03-13T13:00:22;1.97;;;1.40;;
6517;SDS011;3292;48.944;9.240;2023-03-13T13:03:00;3.23;;;1.60;;
6517;SDS011;3292;48.944;9.240;2023-03-13T13:05:35;1.73;;;1.63;;
6517;SDS011;3292;48.944;9.240;2023-03-13T13:08:03;3.00;;;1.70;;
6517;SDS011;3292;48.944;9.240;2023-03-13T13:10:30;1.97;;;1.63;;
6517;SDS011;3292;48.944;9.240;2023-03-13T13:15:58;2.80;;;1.40;;
6517;SDS011;3292;48.944;9.240;2023-03-13T13:18:27;1.90;;;1.43;;
6517;SDS011;3292;48.944;9.240;2023-03-13T13:23:52;3.30;;;1.70;;
6517;SDS011;3292;48.944;9.240;2023-03-13T13:32:29;1.97;;;1.40;;
6517;SDS011;3292;48.944;9.240;2023-03-13T13:35:05;3.13;;;1.50;;
6517;SDS011;3292;48.944;9.240;2023-03-13T13:37:44;3.03;;;1.70;;
6517;SDS011;3292;48.944;9.240;2023-03-13T13:40:21;1.50;;;1.40;;
6517;SDS011;3292;48.944;9.240;2023-03-13T13:42:52;1.90;;;1.40;;
6517;SDS011;3292;48.944;9.240;2023-03-13T13:45:23;1.70;;;1.30;;
6517;SDS011;3292;48.944;9.240;2023-03-13T13:53:49;1.97;;;1.40;;
6517;SDS011;3292;48.944;9.240;2023-03-13T13:56:31;3.43;;;1.50;;
6517;SDS011;3292;48.944;9.240;2023-03-13T13:59:02;1.67;;;1.50;;
6517;SDS011;3292;48.944;9.240;2023-03-13T14:01:40;2.03;;;1.40;;
6517;SDS011;3292;48.944;9.240;2023-03-13T14:04:10;1.60;;;1.50;;
6517;SDS011;3292;48.944;9.240;2023-03-13T14:06:41;5.37;;;1.50;;
6517;SDS011;3292;48.944;9.240;2023-03-13T14:09:13;2.40;;;1.30;;
6517;SDS011;3292;48.944;9.240;2023-03-13T14:11:47;4.03;;;3.10;;
6517;SDS011;3292;48.944;9.240;2023-03-13T14:14:14;1.57;;;1.47;;
6517;SDS011;3292;48.944;9.240;2023-03-13T14:16:42;1.67;;;1.33;;
6517;SDS011;3292;48.944;9.240;2023-03-13T14:19:20;1.80;;;1.30;;
6517;SDS011;3292;48.944;9.240;2023-03-13T14:21:49;1.30;;;1.20;;
6517;SDS011;3292;48.944;9.240;2023-03-13T14:24:16;2.30;;;1.50;;
6517;SDS011;3292;48.944;9.240;2023-03-13T14:26:43;2.97;;;1.40;;
6517;SDS011;3292;48.944;9.240;2023-03-13T14:29:15;2.93;;;1.37;;
6517;SDS011;3292;48.944;9.240;2023-03-13T14:31:50;2.73;;;1.37;;
6517;SDS011;3292;48.944;9.240;2023-03-13T14:34:18;1.40;;;1.30;;
6517;SDS011;3292;48.944;9.240;2023-03-13T14:36:46;1.90;;;1.43;;
6517;SDS011;3292;48.944;9.240;2023-03-13T14:39:15;1.70;;;1.53;;
6517;SDS011;3292;48.944;9.240;2023-03-13T14:41:45;1.33;;;1.20;;
6517;SDS011;3292;48.944;9.240;2023-03-13T14:44:14;3.90;;;1.30;;
6517;SDS011;3292;48.944;9.240;2023-03-13T14:46:47;2.07;;;1.40;;
6517;SDS011;3292;48.944;9.240;2023-03-13T14:49:15;1.43;;;1.20;;
6517;SDS011;3292;48.944;9.240;2023-03-13T14:51:44;3.87;;;1.30;;
6517;SDS011;3292;48.944;9.240;2023-03-13T14:54:24;2.70;;;1.30;;
6517;SDS011;3292;48.944;9.240;2023-03-13T14:59:48;1.77;;;1.63;;
6517;SDS011;3292;48.944;9.240;2023-03-13T15:02:18;2.67;;;1.30;;
6517;SDS011;3292;48.944;9.240;2023-03-13T15:04:47;1.83;;;1.50;;
6517;SDS011;3292;48.944;9.240;2023-03-13T15:07:18;3.00;;;1.43;;
6517;SDS011;3292;48.944;9.240;2023-03-13T15:09:46;2.20;;;1.30;;
6517;SDS011;3292;48.944;9.240;2023-03-13T15:12:15;1.73;;;1.33;;
6517;SDS011;3292;48.944;9.240;2023-03-13T15:14:45;3.87;;;1.40;;
6517;SDS011;3292;48.944;9.240;2023-03-13T15:17:16;2.27;;;1.30;;
6517;SDS011;3292;48.944;9.240;2023-03-13T15:19:48;2.30;;;1.40;;
6517;SDS011;3292;48.944;9.240;2023-03-13T15:22:16;4.17;;;1.50;;
6517;SDS011;3292;48.944;9.240;2023-03-13T15:24:45;4.57;;;1.40;;
6517;SDS011;3292;48.944;9.240;2023-03-13T15:27:14;3.30;;;1.53;;
6517;SDS011;3292;48.944;9.240;2023-03-13T15:29:42;2.13;;;1.50;;
6517;SDS011;3292;48.944;9.240;2023-03-13T15:32:13;2.13;;;1.40;;
6517;SDS011;3292;48.944;9.240;2023-03-13T15:34:47;1.90;;;1.50;;
6517;SDS011;3292;48.944;9.240;2023-03-13T15:37:14;3.63;;;1.40;;
6517;SDS011;3292;48.944;9.240;2023-03-13T15:39:41;1.63;;;1.40;;
6517;SDS011;3292;48.944;9.240;2023-03-13T15:42:08;2.03;;;1.27;;
6517;SDS011;3292;48.944;9.240;2023-03-13T15:44:35;3.37;;;1.50;;
6517;SDS011;3292;48.944;9.240;2023-03-13T15:47:02;1.47;;;1.37;;
6517;SDS011;3292;48.944;9.240;2023-03-13T15:49:30;1.93;;;1.50;;
6517;SDS011;3292;48.944;9.240;2023-03-13T15:51:57;1.67;;;1.30;;
6517;SDS011;3292;48.944;9.240;2023-03-13T15:54:23;2.57;;;1.67;;
6517;SDS011;3292;48.944;9.240;2023-03-13T15:56:51;4.27;;;1.60;;
6517;SDS011;3292;48.944;9.240;2023-03-13T15:59:18;1.63;;;1.53;;
6517;SDS011;3292;48.944;9.240;2023-03-13T16:01:44;3.50;;;2.03;;
6517;SDS011;3292;48.944;9.240;2023-03-13T16:04:12;1.60;;;1.50;;
6517;SDS011;3292;48.944;9.240;2023-03-13T16:06:40;2.27;;;1.40;;
6517;SDS011;3292;48.944;9.240;2023-03-13T16:09:09;1.60;;;1.40;;